createdAt,value
2018-11-12T00:00:30.143Z,56.52
2018-11-12T00:01:30.611Z,56.84
2018-11-12T00:02:31.083Z,55.53
2018-11-12T00:03:31.549Z,55.09
2018-11-12T00:04:32.019Z,55.35
2018-11-12T00:05:32.487Z,56.04
2018-11-12T00:06:32.960Z,53.85
2018-11-12T00:07:33.428Z,53.57
2018-11-12T00:08:33.896Z,53.11
2018-11-12T00:09:34.365Z,52.35
2018-11-12T00:10:34.835Z,52.37
2018-11-12T00:11:35.304Z,53.18
2018-11-12T00:12:35.776Z,52.50
2018-11-12T00:13:36.245Z,51.33
2018-11-12T00:14:36.708Z,52.56
2018-11-12T00:15:37.182Z,52.91
2018-11-12T00:16:37.649Z,52.41
2018-11-12T00:17:38.120Z,51.60
2018-11-12T00:18:38.587Z,50.95
2018-11-12T00:19:39.058Z,50.61
2018-11-12T00:20:39.625Z,50.46
2018-11-12T00:21:40.070Z,51.52
2018-11-12T00:22:40.466Z,50.06
2018-11-12T00:23:40.936Z,50.36
2018-11-12T00:24:41.409Z,49.81
2018-11-12T00:25:41.878Z,50.02
2018-11-12T00:26:42.378Z,50.22
2018-11-12T00:27:42.819Z,49.98
2018-11-12T00:28:43.289Z,48.71
2018-11-12T00:29:43.760Z,49.03
2018-11-12T00:30:44.236Z,49.19
2018-11-12T00:31:44.702Z,47.60
2018-11-12T00:32:45.175Z,45.47
2018-11-12T00:33:45.643Z,46.13
2018-11-12T00:34:46.116Z,46.34
2018-11-12T00:35:46.588Z,47.20
2018-11-12T00:36:47.057Z,47.67
2018-11-12T00:37:47.530Z,47.69
2018-11-12T00:38:48.004Z,48.03
2018-11-12T00:39:48.473Z,46.08
2018-11-12T00:40:48.945Z,46.71
2018-11-12T00:41:49.416Z,48.09
2018-11-12T00:42:49.888Z,48.05
2018-11-12T00:43:50.363Z,47.69
2018-11-12T00:44:50.832Z,47.81
2018-11-12T00:45:51.304Z,49.19
2018-11-12T00:46:51.777Z,49.95
2018-11-12T00:47:52.254Z,50.46
2018-11-12T00:48:52.723Z,50.22
2018-11-12T00:49:53.195Z,50.42
2018-11-12T00:50:53.668Z,50.11
2018-11-12T00:51:54.142Z,50.39
2018-11-12T00:52:54.611Z,49.97
2018-11-12T00:53:55.088Z,49.61
2018-11-12T00:54:55.609Z,49.44
2018-11-12T00:55:56.033Z,47.98
2018-11-12T00:56:56.504Z,48.78
2018-11-12T00:57:56.981Z,48.11
2018-11-12T00:58:57.451Z,46.00
2018-11-12T00:59:57.923Z,45.84
2018-11-12T01:00:58.394Z,45.54
2018-11-12T01:01:58.871Z,44.90
2018-11-12T01:02:59.344Z,43.14
2018-11-12T01:03:59.853Z,42.89
2018-11-12T01:05:00.286Z,43.36
2018-11-12T01:06:00.756Z,42.82
2018-11-12T01:07:01.228Z,43.58
2018-11-12T01:08:01.701Z,44.00
2018-11-12T01:09:02.172Z,45.11
2018-11-12T01:10:02.641Z,45.27
2018-11-12T01:11:03.116Z,45.42
2018-11-12T01:12:03.583Z,44.55
2018-11-12T01:13:04.054Z,43.22
2018-11-12T01:14:04.524Z,42.61
2018-11-12T01:15:04.995Z,43.18
2018-11-12T01:16:05.476Z,42.54
2018-11-12T01:17:05.937Z,42.25
2018-11-12T01:18:06.403Z,42.12
2018-11-12T01:19:06.874Z,41.87
2018-11-12T01:20:07.342Z,42.60
2018-11-12T01:21:07.810Z,43.30
2018-11-12T01:22:08.280Z,42.51
2018-11-12T01:23:08.749Z,43.78
2018-11-12T01:24:09.220Z,44.19
2018-11-12T01:25:09.686Z,42.01
2018-11-12T01:26:10.155Z,41.83
2018-11-12T01:27:10.629Z,41.38
2018-11-12T01:28:11.095Z,41.63
2018-11-12T01:29:11.564Z,41.30
2018-11-12T01:30:12.032Z,41.83
2018-11-12T01:31:12.503Z,42.31
2018-11-12T01:32:12.975Z,41.77
2018-11-12T01:33:13.441Z,41.99
2018-11-12T01:34:13.909Z,42.37
2018-11-12T01:35:14.379Z,41.82
2018-11-12T01:36:14.850Z,41.75
2018-11-12T01:37:15.316Z,41.56
2018-11-12T01:38:15.785Z,41.94
2018-11-12T01:39:16.256Z,41.78
2018-11-12T01:40:16.728Z,41.90
2018-11-12T01:41:17.195Z,42.30
2018-11-12T01:42:17.669Z,41.30
2018-11-12T01:43:18.136Z,41.40
2018-11-12T01:44:18.606Z,41.47
2018-11-12T01:45:19.078Z,41.81
2018-11-12T01:46:19.546Z,42.33
2018-11-12T01:47:20.018Z,42.35
2018-11-12T01:48:20.487Z,42.27
2018-11-12T01:49:20.956Z,42.04
2018-11-12T01:50:21.428Z,41.70
2018-11-12T01:51:21.899Z,41.43
2018-11-12T01:52:22.371Z,41.50
2018-11-12T01:53:22.841Z,41.62
2018-11-12T01:54:23.313Z,40.96
2018-11-12T01:55:23.785Z,40.62
2018-11-12T01:56:24.285Z,40.51
2018-11-12T01:57:24.729Z,40.60
2018-11-12T01:58:25.196Z,40.63
2018-11-12T01:59:25.669Z,40.88
2018-11-12T02:00:26.142Z,41.14
2018-11-12T02:01:26.644Z,41.01
2018-11-12T02:02:27.083Z,41.26
2018-11-12T02:03:27.558Z,41.14
2018-11-12T02:04:28.030Z,41.14
2018-11-12T02:05:28.502Z,41.54
2018-11-12T02:06:28.973Z,41.45
2018-11-12T02:07:29.447Z,41.94
2018-11-12T02:08:29.917Z,42.22
2018-11-12T02:09:30.389Z,41.84
2018-11-12T02:10:30.862Z,41.82
2018-11-12T02:11:31.335Z,43.62
2018-11-12T02:12:31.807Z,42.29
2018-11-12T02:13:32.283Z,42.25
2018-11-12T02:14:32.764Z,42.97
2018-11-12T02:15:33.227Z,43.08
2018-11-12T02:16:33.700Z,43.54
2018-11-12T02:17:34.172Z,42.70
2018-11-12T02:18:34.644Z,42.82
2018-11-12T02:19:35.117Z,42.89
2018-11-12T02:20:35.592Z,42.70
2018-11-12T02:21:36.108Z,43.13
2018-11-12T02:22:36.537Z,44.43
2018-11-12T02:23:37.009Z,44.08
2018-11-12T02:24:37.483Z,43.52
2018-11-12T02:25:37.952Z,44.40
2018-11-12T02:26:38.427Z,43.88
2018-11-12T02:27:38.898Z,44.62
2018-11-12T02:28:39.369Z,45.25
2018-11-12T02:29:39.840Z,45.60
2018-11-12T02:30:40.398Z,45.32
2018-11-12T02:31:40.785Z,45.55
2018-11-12T02:32:41.317Z,45.50
2018-11-12T02:33:41.729Z,46.59
2018-11-12T02:34:42.234Z,46.70
2018-11-12T02:35:42.667Z,46.82
2018-11-12T02:36:43.139Z,47.95
2018-11-12T02:37:43.608Z,47.57
2018-11-12T02:38:44.075Z,47.39
2018-11-12T02:39:44.551Z,47.56
2018-11-12T02:40:45.016Z,48.01
2018-11-12T02:41:45.484Z,47.62
2018-11-12T02:42:45.956Z,47.16
2018-11-12T02:43:46.427Z,47.57
2018-11-12T02:44:46.894Z,48.40
2018-11-12T02:45:47.365Z,48.46
2018-11-12T02:46:47.833Z,48.23
2018-11-12T02:47:48.303Z,48.28
2018-11-12T02:48:48.773Z,48.37
2018-11-12T02:49:49.239Z,49.11
2018-11-12T02:50:49.708Z,48.71
2018-11-12T02:51:50.180Z,48.29
2018-11-12T02:52:50.646Z,48.23
2018-11-12T02:53:51.115Z,48.73
2018-11-12T02:54:51.587Z,49.59
2018-11-12T02:55:52.054Z,49.11
2018-11-12T02:56:52.523Z,49.17
2018-11-12T02:57:52.993Z,49.77
2018-11-12T02:58:53.463Z,49.34
2018-11-12T02:59:53.931Z,49.47
2018-11-12T03:00:54.400Z,49.63
2018-11-12T03:01:54.869Z,49.98
2018-11-12T03:02:55.342Z,50.33
2018-11-12T03:03:55.811Z,50.38
2018-11-12T03:04:56.282Z,50.28
2018-11-12T03:05:56.748Z,50.39
2018-11-12T03:06:57.219Z,50.38
2018-11-12T03:07:57.690Z,50.25
2018-11-12T03:08:58.161Z,50.32
2018-11-12T03:09:58.631Z,50.07
2018-11-12T03:10:59.101Z,50.97
2018-11-12T03:11:59.575Z,51.28
2018-11-12T03:13:00.045Z,51.89
2018-11-12T03:14:00.516Z,51.91
2018-11-12T03:15:00.985Z,52.50
2018-11-12T03:16:01.457Z,52.85
2018-11-12T03:17:01.929Z,52.99
2018-11-12T03:18:02.401Z,53.51
2018-11-12T03:19:02.870Z,54.03
2018-11-12T03:20:03.350Z,54.91
2018-11-12T03:21:03.815Z,54.90
2018-11-12T03:22:04.286Z,54.88
2018-11-12T03:23:04.762Z,55.41
2018-11-12T03:24:05.228Z,54.94
2018-11-12T03:25:05.702Z,55.36
2018-11-12T03:26:06.173Z,55.46
2018-11-12T03:27:06.644Z,56.02
2018-11-12T03:28:07.119Z,56.71
2018-11-12T03:29:07.590Z,57.80
2018-11-12T03:30:08.063Z,57.26
2018-11-12T03:31:08.546Z,55.92
2018-11-12T03:32:09.014Z,56.25
2018-11-12T03:33:09.479Z,57.76
2018-11-12T03:34:09.953Z,59.30
2018-11-12T03:35:10.424Z,58.12
2018-11-12T03:36:10.897Z,58.94
2018-11-12T03:37:11.371Z,60.13
2018-11-12T03:38:11.844Z,57.04
2018-11-12T03:39:12.315Z,57.19
2018-11-12T03:40:12.788Z,57.58
2018-11-12T03:41:13.265Z,56.70
2018-11-12T03:42:13.738Z,54.25
2018-11-12T03:43:14.207Z,55.68
2018-11-12T03:44:14.679Z,56.13
2018-11-12T03:45:15.168Z,55.80
2018-11-12T03:46:15.625Z,56.18
2018-11-12T03:47:16.098Z,55.77
2018-11-12T03:48:16.572Z,54.60
2018-11-12T03:49:17.043Z,55.70
2018-11-12T03:50:17.514Z,55.58
2018-11-12T03:51:17.987Z,56.42
2018-11-12T03:52:18.458Z,55.62
2018-11-12T03:53:18.928Z,57.36
2018-11-12T03:54:19.398Z,58.87
2018-11-12T03:55:19.869Z,60.34
2018-11-12T03:56:20.340Z,61.40
2018-11-12T03:57:20.811Z,60.43
2018-11-12T03:58:21.281Z,61.50
2018-11-12T03:59:21.752Z,62.40
2018-11-12T04:00:22.316Z,60.95
2018-11-12T04:01:22.691Z,61.51
2018-11-12T04:02:23.163Z,59.65
2018-11-12T04:03:23.630Z,58.74
2018-11-12T04:04:24.099Z,60.08
2018-11-12T04:05:24.569Z,60.85
2018-11-12T04:06:25.037Z,59.57
2018-11-12T04:07:25.508Z,60.17
2018-11-12T04:08:25.977Z,56.94
2018-11-12T04:09:26.446Z,58.17
2018-11-12T04:10:26.914Z,57.99
2018-11-12T04:11:27.383Z,57.92
2018-11-12T04:12:27.851Z,59.14
2018-11-12T04:13:28.327Z,60.37
2018-11-12T04:14:28.790Z,60.98
2018-11-12T04:15:29.257Z,61.35
2018-11-12T04:16:29.728Z,61.47
2018-11-12T04:17:30.198Z,61.43
2018-11-12T04:18:30.666Z,62.31
2018-11-12T04:19:31.139Z,62.07
2018-11-12T04:20:31.605Z,61.28
2018-11-12T04:21:32.075Z,60.86
2018-11-12T04:22:32.544Z,58.72
2018-11-12T04:23:33.012Z,59.00
2018-11-12T04:24:33.484Z,58.60
2018-11-12T04:25:33.955Z,59.01
2018-11-12T04:26:34.422Z,59.47
2018-11-12T04:27:34.894Z,58.95
2018-11-12T04:28:35.368Z,60.13
2018-11-12T04:29:35.832Z,61.05
2018-11-12T04:30:36.304Z,62.01
2018-11-12T04:31:36.772Z,61.84
2018-11-12T04:32:37.242Z,60.41
2018-11-12T04:33:37.715Z,61.02
2018-11-12T04:34:38.183Z,57.82
2018-11-12T04:35:38.660Z,58.86
2018-11-12T04:36:39.126Z,60.45
2018-11-12T04:37:39.595Z,58.56
2018-11-12T04:38:40.110Z,57.60
2018-11-12T04:39:40.613Z,59.23
2018-11-12T04:40:41.011Z,59.29
2018-11-12T04:41:41.481Z,59.11
2018-11-12T04:42:41.954Z,59.37
2018-11-12T04:43:42.424Z,60.70
2018-11-12T04:44:43.164Z,60.49
2018-11-12T04:45:43.390Z,60.63
2018-11-12T04:46:43.840Z,58.50
2018-11-12T04:47:44.312Z,56.13
2018-11-12T04:48:44.789Z,59.72
2018-11-12T04:49:45.257Z,61.53
2018-11-12T04:50:45.726Z,61.89
2018-11-12T04:51:46.200Z,61.76
2018-11-12T04:52:46.681Z,60.92
2018-11-12T04:53:47.219Z,61.25
2018-11-12T04:54:47.616Z,60.27
2018-11-12T04:55:48.089Z,58.99
2018-11-12T04:56:48.562Z,57.99
2018-11-12T04:57:49.034Z,55.14
2018-11-12T04:58:49.514Z,52.31
2018-11-12T04:59:49.978Z,51.61
2018-11-12T05:00:50.455Z,53.95
2018-11-12T05:01:50.959Z,56.36
2018-11-12T05:02:51.397Z,56.81
2018-11-12T05:03:51.869Z,56.56
2018-11-12T05:04:52.342Z,56.29
2018-11-12T05:05:52.815Z,55.99
2018-11-12T05:06:53.287Z,55.58
2018-11-12T05:07:53.760Z,54.57
2018-11-12T05:08:54.235Z,55.08
2018-11-12T05:09:54.707Z,54.60
2018-11-12T05:10:55.179Z,55.88
2018-11-12T05:11:55.653Z,56.67
2018-11-12T05:12:56.134Z,57.32
2018-11-12T05:13:56.599Z,56.73
2018-11-12T05:14:57.067Z,57.26
2018-11-12T05:15:57.540Z,58.78
2018-11-12T05:16:58.008Z,58.74
2018-11-12T05:17:58.484Z,57.22
2018-11-12T05:18:58.997Z,56.83
2018-11-12T05:19:59.423Z,56.43
2018-11-12T05:20:59.892Z,56.82
2018-11-12T05:22:00.361Z,55.93
2018-11-12T05:23:00.830Z,54.26
2018-11-12T05:24:01.301Z,53.98
2018-11-12T05:25:01.772Z,54.66
2018-11-12T05:26:02.239Z,54.77
2018-11-12T05:27:02.713Z,54.74
2018-11-12T05:28:03.181Z,55.42
2018-11-12T05:29:03.648Z,56.13
2018-11-12T05:30:04.123Z,56.90
2018-11-12T05:31:04.585Z,57.62
2018-11-12T05:32:05.057Z,57.23
2018-11-12T05:33:05.525Z,55.04
2018-11-12T05:34:05.996Z,54.37
2018-11-12T05:35:06.462Z,54.98
2018-11-12T05:36:06.932Z,55.45
2018-11-12T05:37:07.400Z,56.09
2018-11-12T05:38:07.892Z,56.79
2018-11-12T05:39:08.336Z,55.62
2018-11-12T05:40:08.807Z,54.40
2018-11-12T05:41:09.278Z,52.97
2018-11-12T05:42:09.745Z,52.71
2018-11-12T05:43:10.212Z,53.77
2018-11-12T05:44:10.683Z,54.48
2018-11-12T05:45:11.152Z,55.10
2018-11-12T05:46:11.622Z,55.57
2018-11-12T05:47:12.090Z,55.75
2018-11-12T05:48:12.560Z,55.69
2018-11-12T05:49:13.031Z,56.49
2018-11-12T05:50:13.503Z,56.19
2018-11-12T05:51:13.970Z,55.48
2018-11-12T05:52:14.440Z,54.39
2018-11-12T05:53:14.909Z,53.45
2018-11-12T05:54:15.378Z,53.28
2018-11-12T05:55:15.852Z,54.31
2018-11-12T05:56:16.320Z,54.28
2018-11-12T05:57:16.790Z,54.49
2018-11-12T05:58:17.262Z,54.41
2018-11-12T05:59:17.733Z,54.63
2018-11-12T06:00:18.203Z,55.07
2018-11-12T06:01:18.675Z,55.66
2018-11-12T06:02:19.143Z,56.13
2018-11-12T06:03:19.614Z,56.36
2018-11-12T06:04:20.086Z,56.71
2018-11-12T06:05:20.559Z,56.58
2018-11-12T06:06:21.030Z,55.84
2018-11-12T06:07:21.501Z,55.72
2018-11-12T06:08:21.973Z,55.81
2018-11-12T06:09:22.444Z,56.33
2018-11-12T06:10:22.918Z,56.85
2018-11-12T06:11:23.389Z,56.82
2018-11-12T06:12:23.858Z,56.86
2018-11-12T06:13:24.332Z,56.34
2018-11-12T06:14:24.802Z,56.14
2018-11-12T06:15:25.274Z,55.71
2018-11-12T06:16:25.748Z,56.31
2018-11-12T06:17:26.221Z,56.85
2018-11-12T06:18:26.714Z,56.32
2018-11-12T06:19:27.164Z,55.87
2018-11-12T06:20:27.637Z,56.06
2018-11-12T06:21:28.109Z,56.98
2018-11-12T06:22:28.634Z,57.05
2018-11-12T06:23:29.053Z,57.09
2018-11-12T06:24:29.526Z,56.84
2018-11-12T06:25:30.009Z,56.29
2018-11-12T06:26:30.473Z,55.78
2018-11-12T06:27:30.946Z,56.10
2018-11-12T06:28:31.421Z,56.66
2018-11-12T06:29:31.891Z,57.72
2018-11-12T06:30:32.364Z,57.61
2018-11-12T06:31:32.837Z,58.02
2018-11-12T06:32:33.309Z,58.68
2018-11-12T06:33:33.782Z,56.76
2018-11-12T06:34:34.257Z,56.23
2018-11-12T06:35:34.725Z,56.26
2018-11-12T06:36:35.206Z,56.15
2018-11-12T06:37:35.674Z,55.80
2018-11-12T06:38:36.141Z,55.69
2018-11-12T06:39:36.611Z,56.03
2018-11-12T06:40:37.083Z,55.98
2018-11-12T06:41:37.558Z,56.54
2018-11-12T06:42:38.115Z,56.45
2018-11-12T06:43:38.497Z,56.87
2018-11-12T06:44:38.965Z,57.16
2018-11-12T06:45:39.436Z,57.05
2018-11-12T06:46:39.916Z,56.94
2018-11-12T06:47:40.477Z,57.29
2018-11-12T06:48:40.845Z,57.03
2018-11-12T06:49:41.320Z,57.59
2018-11-12T06:50:41.837Z,57.63
2018-11-12T06:51:42.253Z,58.77
2018-11-12T06:52:42.728Z,57.44
2018-11-12T06:53:43.194Z,57.17
2018-11-12T06:54:43.663Z,57.35
2018-11-12T06:55:44.130Z,57.71
2018-11-12T06:56:44.600Z,58.23
2018-11-12T06:57:45.069Z,58.58
2018-11-12T06:58:45.538Z,58.06
2018-11-12T06:59:46.006Z,58.16
2018-11-12T07:00:46.512Z,57.59
2018-11-12T07:01:46.944Z,58.35
2018-11-12T07:02:47.416Z,58.38
2018-11-12T07:03:47.883Z,58.00
2018-11-12T07:04:48.352Z,58.37
2018-11-12T07:05:48.823Z,58.98
2018-11-12T07:06:49.316Z,58.03
2018-11-12T07:07:49.761Z,58.01
2018-11-12T07:08:50.233Z,58.48
2018-11-12T07:09:50.701Z,57.52
2018-11-12T07:10:51.172Z,58.09
2018-11-12T07:11:51.642Z,56.61
2018-11-12T07:12:52.112Z,57.95
2018-11-12T07:13:52.583Z,57.78
2018-11-12T07:14:53.054Z,57.31
2018-11-12T07:15:53.523Z,58.24
2018-11-12T07:16:53.991Z,57.79
2018-11-12T07:17:54.463Z,57.75
2018-11-12T07:18:55.056Z,56.19
2018-11-12T07:19:55.408Z,56.57
2018-11-12T07:20:55.877Z,57.29
2018-11-12T07:21:56.348Z,57.01
2018-11-12T07:22:56.821Z,58.31
2018-11-12T07:23:57.290Z,57.41
2018-11-12T07:24:57.807Z,57.84
2018-11-12T07:25:58.246Z,58.39
2018-11-12T07:26:58.708Z,59.14
2018-11-12T07:27:59.179Z,59.40
2018-11-12T07:28:59.648Z,58.89
2018-11-12T07:30:00.121Z,58.78
2018-11-12T07:31:00.633Z,58.57
2018-11-12T07:32:01.065Z,58.61
2018-11-12T07:33:01.542Z,58.72
2018-11-12T07:34:02.012Z,59.02
2018-11-12T07:35:02.484Z,59.51
2018-11-12T07:36:02.958Z,60.21
2018-11-12T07:37:03.430Z,59.48
2018-11-12T07:38:03.904Z,59.42
2018-11-12T07:39:04.376Z,59.58
2018-11-12T07:40:04.849Z,59.37
2018-11-12T07:41:05.324Z,59.53
2018-11-12T07:42:05.853Z,60.47
2018-11-12T07:43:06.269Z,60.56
2018-11-12T07:44:06.742Z,57.54
2018-11-12T07:45:07.215Z,58.36
2018-11-12T07:46:07.690Z,57.71
2018-11-12T07:47:08.162Z,59.52
2018-11-12T07:48:08.633Z,58.15
2018-11-12T07:49:09.106Z,58.65
2018-11-12T07:50:09.579Z,59.56
2018-11-12T07:51:10.081Z,58.97
2018-11-12T07:52:10.524Z,59.32
2018-11-12T07:53:10.997Z,58.10
2018-11-12T07:54:11.470Z,58.55
2018-11-12T07:55:11.943Z,59.04
2018-11-12T07:56:12.498Z,58.23
2018-11-12T07:57:12.884Z,59.12
2018-11-12T07:58:13.356Z,57.80
2018-11-12T07:59:13.831Z,58.18
2018-11-12T08:00:14.299Z,57.35
2018-11-12T08:01:14.771Z,58.67
2018-11-12T08:02:15.239Z,58.70
2018-11-12T08:03:15.781Z,59.08
2018-11-12T08:04:16.181Z,59.09
2018-11-12T08:05:16.652Z,59.46
2018-11-12T08:06:17.121Z,59.04
2018-11-12T08:07:17.590Z,60.32
2018-11-12T08:08:18.063Z,58.99
2018-11-12T08:09:18.628Z,59.94
2018-11-12T08:10:19.004Z,58.98
2018-11-12T08:11:19.472Z,59.14
2018-11-12T08:12:19.941Z,60.98
2018-11-12T08:13:20.408Z,59.49
2018-11-12T08:14:20.926Z,60.08
2018-11-12T08:15:21.350Z,60.28
2018-11-12T08:16:21.817Z,59.90
2018-11-12T08:17:22.331Z,58.99
2018-11-12T08:18:22.757Z,59.45
2018-11-12T08:19:23.226Z,59.23
2018-11-12T08:20:23.697Z,59.68
2018-11-12T08:21:24.167Z,58.67
2018-11-12T08:22:24.636Z,60.28
2018-11-12T08:23:25.107Z,60.35
2018-11-12T08:24:25.607Z,59.35
2018-11-12T08:25:26.047Z,58.95
2018-11-12T08:26:26.518Z,61.72
2018-11-12T08:27:27.039Z,60.31
2018-11-12T08:28:27.461Z,60.31
2018-11-12T08:29:27.933Z,61.06
2018-11-12T08:30:28.501Z,59.41
2018-11-12T08:31:28.872Z,59.47
2018-11-12T08:32:29.344Z,57.80
2018-11-12T08:33:29.817Z,58.36
2018-11-12T08:34:30.287Z,58.88
2018-11-12T08:35:30.760Z,59.53
2018-11-12T08:36:31.254Z,61.80
2018-11-12T08:37:31.704Z,59.40
2018-11-12T08:38:32.174Z,59.16
2018-11-12T08:39:32.772Z,58.24
2018-11-12T08:40:33.258Z,58.44
2018-11-12T08:41:33.592Z,58.96
2018-11-12T08:42:34.066Z,58.93
2018-11-12T08:43:34.539Z,59.11
2018-11-12T12:54:35.760Z,67.27
2018-11-12T12:55:36.309Z,67.69
2018-11-12T12:56:36.657Z,67.11
2018-11-12T12:57:37.113Z,67.10
2018-11-12T12:58:37.566Z,67.24
2018-11-12T12:59:38.082Z,67.35
2018-11-12T13:00:38.478Z,67.15
2018-11-12T13:01:39.025Z,67.29
2018-11-12T13:02:39.389Z,67.11
2018-11-12T13:03:39.847Z,66.95
2018-11-12T13:04:40.357Z,66.67
2018-11-12T13:05:40.764Z,65.98
2018-11-12T13:06:41.265Z,65.02
2018-11-12T13:07:41.682Z,65.11
2018-11-12T13:08:42.141Z,64.23
2018-11-12T13:09:42.604Z,64.49
2018-11-12T13:10:43.061Z,64.75
2018-11-12T13:11:43.522Z,64.04
2018-11-12T13:12:43.985Z,63.57
2018-11-12T13:13:44.459Z,62.69
2018-11-12T13:14:45.021Z,62.49
2018-11-12T13:15:45.371Z,62.46
2018-11-12T13:16:45.829Z,62.41
2018-11-12T13:17:46.292Z,62.54
2018-11-12T13:18:46.755Z,62.78
2018-11-12T13:19:47.271Z,62.80
2018-11-12T13:20:47.738Z,63.31
2018-11-12T13:21:48.150Z,63.55
2018-11-12T13:22:48.613Z,63.12
2018-11-12T13:23:49.076Z,61.97
2018-11-12T13:24:49.544Z,62.19
2018-11-12T13:25:50.010Z,61.50
2018-11-12T13:26:50.477Z,62.06
2018-11-12T13:27:50.940Z,61.97
2018-11-12T13:28:51.408Z,62.31
2018-11-12T13:29:51.935Z,61.31
2018-11-12T13:30:52.341Z,60.79
2018-11-12T13:31:52.808Z,60.03
2018-11-12T13:32:53.278Z,57.24
2018-11-12T13:33:53.750Z,54.23
2018-11-12T13:34:54.214Z,53.84
2018-11-12T13:35:54.684Z,53.35
2018-11-12T13:36:55.153Z,50.98
2018-11-12T13:37:55.624Z,51.44
2018-11-12T13:38:56.092Z,51.58
2018-11-12T13:39:56.562Z,51.30
2018-11-12T13:40:57.031Z,51.87
2018-11-12T13:41:57.503Z,52.79
2018-11-12T13:42:57.974Z,53.28
2018-11-12T13:43:58.444Z,54.44
2018-11-12T13:44:58.918Z,54.38
2018-11-12T13:45:59.389Z,53.61
2018-11-12T13:46:59.863Z,49.75
2018-11-12T13:48:00.333Z,49.30
2018-11-12T13:49:00.805Z,48.50
2018-11-12T13:50:01.278Z,50.69
2018-11-12T13:51:01.751Z,51.79
2018-11-12T13:52:02.224Z,51.64
2018-11-12T13:53:02.747Z,50.79
2018-11-12T13:54:03.171Z,49.96
2018-11-12T13:55:03.647Z,51.34
2018-11-12T13:56:04.118Z,50.08
2018-11-12T13:57:04.593Z,50.95
2018-11-12T13:58:05.069Z,49.85
2018-11-12T13:59:05.541Z,49.65
2018-11-12T14:00:06.016Z,50.42
2018-11-12T14:01:06.491Z,48.74
2018-11-12T14:02:06.966Z,48.50
2018-11-12T14:03:07.440Z,49.02
2018-11-12T14:04:07.916Z,49.87
2018-11-12T14:05:08.392Z,49.45
2018-11-12T14:06:08.864Z,49.55
2018-11-12T14:07:09.337Z,47.21
2018-11-12T14:08:09.812Z,49.13
2018-11-12T14:09:10.289Z,47.70
2018-11-12T14:10:10.765Z,47.94
2018-11-12T14:11:11.237Z,47.63
2018-11-12T14:12:11.712Z,47.78
2018-11-12T14:13:12.187Z,46.86
2018-11-12T14:14:12.660Z,46.70
2018-11-12T14:15:13.132Z,48.66
2018-11-12T14:16:13.607Z,46.34
2018-11-12T14:17:14.081Z,46.22
2018-11-12T14:18:14.556Z,44.01
2018-11-12T14:19:15.027Z,43.51
2018-11-12T14:20:15.533Z,45.49
2018-11-12T14:21:16.078Z,46.40
2018-11-12T14:22:16.449Z,45.42
2018-11-12T14:23:16.922Z,45.61
2018-11-12T14:24:17.391Z,46.89
2018-11-12T14:25:17.866Z,45.78
2018-11-12T14:26:18.339Z,46.06
2018-11-12T14:27:18.810Z,45.50
2018-11-12T14:28:19.365Z,47.89
2018-11-12T14:29:19.758Z,48.80
2018-11-12T14:30:20.229Z,45.42
2018-11-12T14:31:20.698Z,48.52
2018-11-12T14:32:21.170Z,47.26
2018-11-12T14:33:21.719Z,48.04
2018-11-12T14:34:22.114Z,47.19
2018-11-12T14:35:22.619Z,48.31
2018-11-12T14:36:23.055Z,48.62
2018-11-12T14:37:23.529Z,45.34
2018-11-12T14:38:23.998Z,46.46
2018-11-12T14:39:24.509Z,46.81
2018-11-12T14:40:24.938Z,47.51
2018-11-12T14:41:25.412Z,46.23
2018-11-12T14:42:25.883Z,46.36
2018-11-12T14:43:26.352Z,47.01
2018-11-12T14:44:26.821Z,45.36
2018-11-12T14:45:27.326Z,45.43
2018-11-12T14:46:27.764Z,46.16
2018-11-12T14:47:28.232Z,47.26
2018-11-12T14:48:28.704Z,46.61
2018-11-12T14:49:29.173Z,47.06
2018-11-12T14:50:29.644Z,48.40
2018-11-12T14:51:30.114Z,49.06
2018-11-12T14:52:30.588Z,46.93
2018-11-12T14:53:31.055Z,45.90
2018-11-12T14:54:31.530Z,46.25
2018-11-12T14:55:31.998Z,46.68
2018-11-12T14:56:32.469Z,47.91
2018-11-12T14:57:32.939Z,47.89
2018-11-12T14:58:33.412Z,48.26
2018-11-12T14:59:33.881Z,47.92
2018-11-12T15:00:34.356Z,49.89
2018-11-12T15:01:34.858Z,48.13
2018-11-12T15:02:35.302Z,48.36
2018-11-12T15:03:35.770Z,46.87
2018-11-12T15:04:36.243Z,46.37
2018-11-12T15:05:36.721Z,47.90
2018-11-12T15:06:37.189Z,49.71
2018-11-12T15:07:37.663Z,49.61
2018-11-12T15:08:38.140Z,48.91
2018-11-12T15:09:38.610Z,49.21
2018-11-12T15:10:39.084Z,48.66
2018-11-12T15:11:39.557Z,47.93
2018-11-12T15:12:40.034Z,48.81
2018-11-12T15:13:40.524Z,48.89
2018-11-12T15:14:41.001Z,50.02
2018-11-12T15:15:41.453Z,50.55
2018-11-12T15:16:41.928Z,47.85
2018-11-12T15:17:42.404Z,47.19
2018-11-12T15:18:42.878Z,48.82
2018-11-12T15:19:43.353Z,50.49
2018-11-12T15:20:43.826Z,51.13
2018-11-12T15:21:44.300Z,52.13
2018-11-12T15:22:44.816Z,52.21
2018-11-12T15:23:45.251Z,51.00
2018-11-12T15:24:45.723Z,51.65
2018-11-12T15:25:46.198Z,52.27
2018-11-12T15:26:46.677Z,52.80
2018-11-12T15:27:47.150Z,52.71
2018-11-12T15:28:47.622Z,53.32
2018-11-12T15:29:48.096Z,53.63
2018-11-12T15:30:48.571Z,53.36
2018-11-12T15:31:49.044Z,52.35
2018-11-12T15:32:49.517Z,54.03
2018-11-12T15:33:49.993Z,52.00
2018-11-12T15:34:50.463Z,52.36
2018-11-12T15:35:50.939Z,53.18
2018-11-12T15:36:51.524Z,53.08
2018-11-12T15:37:51.883Z,53.14
2018-11-12T15:38:52.356Z,54.10
2018-11-12T15:39:52.827Z,54.44
2018-11-12T15:40:53.300Z,54.81
2018-11-12T15:41:53.773Z,55.04
2018-11-12T15:42:54.248Z,55.99
2018-11-12T15:43:54.716Z,53.94
2018-11-12T15:44:55.193Z,54.62
2018-11-12T15:45:55.660Z,52.28
2018-11-12T15:46:56.132Z,54.04
2018-11-12T15:47:56.604Z,55.60
2018-11-12T15:48:57.075Z,56.27
2018-11-12T15:49:57.548Z,57.09
2018-11-12T15:50:58.112Z,55.72
2018-11-12T15:51:58.491Z,54.64
2018-11-12T15:52:58.959Z,55.17
2018-11-12T15:53:59.431Z,55.82
2018-11-12T15:54:59.902Z,56.76
2018-11-12T15:56:00.374Z,55.44
2018-11-12T15:57:00.910Z,54.38
2018-11-12T15:58:01.375Z,55.80
2018-11-12T15:59:01.785Z,55.07
2018-11-12T16:00:02.253Z,53.04
2018-11-12T16:01:02.725Z,53.79
2018-11-12T16:02:03.195Z,55.70
2018-11-12T16:03:03.665Z,56.68
2018-11-12T16:04:04.134Z,54.85
2018-11-12T16:05:04.606Z,55.81
2018-11-12T16:06:05.148Z,57.12
2018-11-12T16:07:05.549Z,57.53
2018-11-12T16:08:06.017Z,57.59
2018-11-12T16:09:06.491Z,57.38
2018-11-12T16:10:06.960Z,57.23
2018-11-12T16:11:07.470Z,58.36
2018-11-12T16:12:07.950Z,57.65
2018-11-12T16:13:08.375Z,57.97
2018-11-12T16:14:08.844Z,58.16
2018-11-12T16:15:09.317Z,58.91
2018-11-12T16:16:09.787Z,58.60
2018-11-12T16:17:10.267Z,57.64
2018-11-12T16:18:10.730Z,58.44
2018-11-12T16:19:11.265Z,56.28
2018-11-12T16:20:11.674Z,55.29
2018-11-12T16:21:12.149Z,56.02
2018-11-12T16:22:12.623Z,56.88
2018-11-12T16:23:13.094Z,58.09
2018-11-12T16:24:13.568Z,58.16
2018-11-12T16:25:14.042Z,57.74
2018-11-12T16:26:14.514Z,59.19
2018-11-12T16:27:14.990Z,60.46
2018-11-12T16:28:15.463Z,58.24
2018-11-12T16:29:15.936Z,55.85
2018-11-12T16:30:16.411Z,56.37
2018-11-12T16:31:16.889Z,57.79
2018-11-12T16:32:17.361Z,58.30
2018-11-12T16:33:17.835Z,59.16
2018-11-12T16:34:18.309Z,59.73
2018-11-12T16:35:18.788Z,59.62
2018-11-12T16:36:19.256Z,59.28
2018-11-12T16:37:19.733Z,59.84
2018-11-12T16:38:20.208Z,60.31
2018-11-12T16:39:20.681Z,61.31
2018-11-12T16:40:21.237Z,60.34
2018-11-12T16:41:21.629Z,60.51
2018-11-12T16:42:22.104Z,61.09
2018-11-12T16:43:22.577Z,60.82
2018-11-12T16:44:23.050Z,60.55
2018-11-12T16:45:23.527Z,61.05
2018-11-12T16:46:23.998Z,61.65
2018-11-12T16:47:24.473Z,60.87
2018-11-12T16:48:24.947Z,60.04
2018-11-12T16:49:25.417Z,59.94
2018-11-12T16:50:25.891Z,59.78
2018-11-12T16:51:26.363Z,59.36
2018-11-12T16:52:26.837Z,58.84
2018-11-12T16:53:27.310Z,59.13
2018-11-12T16:54:27.783Z,60.15
2018-11-12T16:55:28.253Z,59.69
2018-11-12T16:56:28.724Z,59.70
2018-11-12T16:57:29.196Z,59.90
2018-11-12T16:58:29.669Z,58.48
2018-11-12T16:59:30.141Z,58.22
2018-11-12T17:00:30.612Z,59.90
2018-11-12T17:01:31.146Z,60.62
2018-11-12T17:02:31.554Z,61.45
2018-11-12T17:03:32.027Z,61.22
2018-11-12T17:04:32.495Z,62.41
2018-11-12T17:05:32.968Z,63.14
2018-11-12T17:06:33.440Z,63.48
2018-11-12T17:07:33.912Z,64.04
2018-11-12T17:08:34.378Z,64.49